Time;durP1;ratioP1;P1;durP2;ratioP2;P2;SDS_P1;SDS_P2;PMS_P1;PMS_P2;Temp;Humidity;BMP_temperature;BMP_pressure;BME280_temperature;BME280_humidity;BME280_pressure;Samples;Min_cycle;Max_cycle;Signal;HPM_P1;HPM_P2
2021/09/21 00:01:31;;;;;;;;;;;;;;;16.46;100.00;100271.53;5074717;28;20055;-80
2021/09/21 00:03:58;;;;;;;;;;;;;;;16.49;100.00;100270.66;5040528;28;19929;-80
2021/09/21 00:06:25;;;;;;;;;;;;;;;16.50;100.00;100263.78;5059035;28;20405;-80
2021/09/21 00:08:52;;;;;;;;;;;;;;;16.51;100.00;100265.41;5065483;28;20371;-80
2021/09/21 00:11:20;;;;;;;;;;;;;;;16.48;100.00;100263.44;5074534;28;19924;-80
2021/09/21 00:13:48;;;;;;;;;;;;;;;16.63;100.00;100273.97;5056867;28;20375;-80
2021/09/21 00:16:15;;;;;;;;;;;;;;;16.73;100.00;100269.34;5036482;28;19971;-80
2021/09/21 00:18:42;;;;;;;;;;;;;;;16.68;100.00;100272.66;5044971;28;19925;-80
2021/09/21 00:21:09;;;;;;;;;;;;;;;16.81;100.00;100277.19;5056142;28;19967;-80
2021/09/21 00:23:37;;;;;;;;;;;;;;;16.56;100.00;100262.84;5059615;28;19947;-80
2021/09/21 00:26:04;;;;;;;;;;;;;;;16.42;100.00;100282.06;5085431;28;20506;-80
2021/09/21 00:28:31;;;;;;;;;;;;;;;16.65;100.00;100279.19;5056675;28;19925;-80
2021/09/21 00:31:09;;;;;;;;;;;;;;;16.67;100.00;100280.34;5056319;28;20370;-80
2021/09/21 00:33:47;;;;;;;;;;;;;;;16.84;100.00;100276.31;5092025;28;19928;-80
2021/09/21 00:36:17;;;;;;;;;;;;;;;16.94;100.00;100269.66;5074130;28;19928;-79
2021/09/21 00:38:45;;;;;;;;;;;;;;;17.00;100.00;100281.22;5056443;28;20167;-80
2021/09/21 00:41:12;;;;;;;;;;;;;;;16.66;100.00;100275.91;5039482;28;20011;-80
2021/09/21 00:43:40;;;;;;;;;;;;;;;16.47;100.00;100278.75;5056103;28;20453;-79
2021/09/21 00:46:07;;;;;;;;;;;;;;;16.57;100.00;100283.41;5073985;28;19947;-80
2021/09/21 00:48:34;;;;;;;;;;;;;;;16.81;100.00;100279.25;5061674;28;19925;-80
2021/09/21 00:51:01;;;;;;;;;;;;;;;17.01;100.00;100280.78;5039242;28;20375;-80
2021/09/21 00:53:29;;;;;;;;;;;;;;;16.74;100.00;100287.84;5073826;28;19967;-80
2021/09/21 00:55:56;;;;;;;;;;;;;;;16.60;100.00;100305.09;5053101;28;19990;-79
2021/09/21 00:58:23;;;;;;;;;;;;;;;16.65;100.00;100299.75;5041689;28;20368;-80
2021/09/21 01:00:50;;;;;;;;;;;;;;;16.69;100.00;100303.28;5052413;28;19925;-80
2021/09/21 01:03:17;;;;;;;;;;;;;;;16.49;100.00;100296.88;5086242;28;20387;-79
2021/09/21 01:05:44;;;;;;;;;;;;;;;16.66;100.00;100297.72;5055676;28;20396;-80
2021/09/21 01:08:11;;;;;;;;;;;;;;;16.73;100.00;100291.91;5073373;28;20042;-79
2021/09/21 01:10:38;;;;;;;;;;;;;;;16.80;100.00;100289.75;5055749;28;20429;-80
2021/09/21 01:13:05;;;;;;;;;;;;;;;16.81;100.00;100288.50;5055398;28;19925;-80
2021/09/21 01:15:32;;;;;;;;;;;;;;;16.68;100.00;100289.59;5055556;28;20348;-80
2021/09/21 01:17:59;;;;;;;;;;;;;;;16.95;100.00;100293.84;5052744;28;20292;-79
2021/09/21 01:20:27;;;;;;;;;;;;;;;17.17;100.00;100294.16;5065927;28;20012;-80
2021/09/21 01:22:54;;;;;;;;;;;;;;;16.94;100.00;100299.91;5030274;28;19924;-80
2021/09/21 01:25:23;;;;;;;;;;;;;;;17.02;100.00;100298.53;5052798;28;19932;-80
2021/09/21 01:27:50;;;;;;;;;;;;;;;17.07;100.00;100306.50;5073141;28;19956;-80
2021/09/21 01:30:17;;;;;;;;;;;;;;;17.08;100.00;100302.44;5058412;28;19939;-80
2021/09/21 01:32:44;;;;;;;;;;;;;;;17.11;100.00;100301.56;5035359;28;19967;-80
2021/09/21 01:35:12;;;;;;;;;;;;;;;17.19;100.00;100303.75;5049371;28;19924;-80
2021/09/21 01:37:48;;;;;;;;;;;;;;;17.34;100.00;100301.44;5038848;28;19931;-80
2021/09/21 01:40:15;;;;;;;;;;;;;;;17.37;100.00;100298.50;5072882;28;20255;-80
2021/09/21 01:42:47;;;;;;;;;;;;;;;17.32;100.00;100289.75;5059275;28;20299;-80
2021/09/21 01:45:15;;;;;;;;;;;;;;;17.10;100.00;100286.63;5055143;28;19924;-80
2021/09/21 01:47:44;;;;;;;;;;;;;;;17.30;100.00;100286.56;5034875;28;19947;-80
2021/09/21 01:52:49;;;;;;;;;;;;;;;16.93;100.00;100296.31;5038200;28;20268;-80
2021/09/21 01:58:15;;;;;;;;;;;;;;;16.86;100.00;100298.47;5072819;28;19924;-80
2021/09/21 02:00:53;;;;;;;;;;;;;;;16.91;100.00;100309.25;5068544;28;20432;-80
2021/09/21 02:03:20;;;;;;;;;;;;;;;17.13;100.00;100305.53;5054682;28;19931;-80
2021/09/21 02:05:47;;;;;;;;;;;;;;;17.20;100.00;100304.56;5037972;28;20023;-80
2021/09/21 02:08:14;;;;;;;;;;;;;;;17.25;100.00;100301.22;5072635;28;19935;-80
2021/09/21 02:10:41;;;;;;;;;;;;;;;17.38;100.00;100308.59;5042277;28;20261;-80
2021/09/21 02:13:08;;;;;;;;;;;;;;;17.35;100.00;100305.81;5049711;28;19932;-80
2021/09/21 02:15:35;;;;;;;;;;;;;;;17.38;100.00;100299.28;5045464;28;19971;-80
2021/09/21 02:18:03;;;;;;;;;;;;;;;17.33;100.00;100297.78;5072295;28;20016;-80
2021/09/21 02:20:30;;;;;;;;;;;;;;;17.31;100.00;100305.13;5054280;28;19929;-80
2021/09/21 02:22:57;;;;;;;;;;;;;;;17.35;100.00;100305.81;5042843;28;19925;-80
2021/09/21 02:25:24;;;;;;;;;;;;;;;17.13;100.00;100299.09;5070037;28;19932;-80
2021/09/21 02:27:51;;;;;;;;;;;;;;;17.45;100.00;100307.63;5072367;28;19951;-80
2021/09/21 02:30:18;;;;;;;;;;;;;;;17.40;100.00;100314.56;5054099;28;19978;-80
2021/09/21 02:32:46;;;;;;;;;;;;;;;17.51;100.00;100303.03;5042588;28;19931;-80
2021/09/21 02:35:13;;;;;;;;;;;;;;;17.44;100.00;100297.56;5054446;28;20372;-80
2021/09/21 02:37:39;;;;;;;;;;;;;;;17.48;100.00;100304.72;5072465;28;19924;-80
2021/09/21 02:40:08;;;;;;;;;;;;;;;17.16;100.00;100303.88;5054415;28;19924;-80
2021/09/21 02:42:35;;;;;;;;;;;;;;;17.17;100.00;100294.16;5051893;28;19928;-80
2021/09/21 02:45:03;;;;;;;;;;;;;;;17.30;100.00;100309.97;5049890;28;19931;-80
2021/09/21 02:47:30;;;;;;;;;;;;;;;17.33;100.00;100302.63;5057987;28;20399;-79
2021/09/21 02:49:57;;;;;;;;;;;;;;;17.56;100.00;100296.88;5058594;28;19929;-80
2021/09/21 02:52:24;;;;;;;;;;;;;;;17.49;100.00;100295.00;5058200;28;19924;-80
2021/09/21 02:54:51;;;;;;;;;;;;;;;17.31;100.00;100285.34;5058641;28;19924;-80
2021/09/21 02:57:18;;;;;;;;;;;;;;;17.17;100.00;100291.34;5058297;28;20415;-79
2021/09/21 02:59:46;;;;;;;;;;;;;;;17.25;100.00;100304.06;5074630;28;19932;-80
2021/09/21 03:02:13;;;;;;;;;;;;;;;17.30;100.00;100292.22;5057948;28;19924;-80
2021/09/21 03:04:48;;;;;;;;;;;;;;;17.29;100.00;100291.44;5075753;28;20379;-80
2021/09/21 03:07:18;;;;;;;;;;;;;;;17.24;100.00;100294.78;5063712;28;20411;-80
2021/09/21 03:17:37;;;;;;;;;;;;;;;17.43;100.00;100288.28;5089445;28;19978;-80
2021/09/21 03:20:04;;;;;;;;;;;;;;;17.33;100.00;100297.00;5057323;28;19931;-80
2021/09/21 03:22:31;;;;;;;;;;;;;;;17.38;100.00;100293.66;5054308;28;19925;-79
2021/09/21 03:24:58;;;;;;;;;;;;;;;17.36;100.00;100294.09;5051964;28;19924;-80
2021/09/21 03:27:26;;;;;;;;;;;;;;;17.65;100.00;100289.38;5065404;28;19924;-80
2021/09/21 03:29:52;;;;;;;;;;;;;;;17.33;100.00;100286.50;5067673;28;19925;-80
2021/09/21 03:32:19;;;;;;;;;;;;;;;17.48;100.00;100287.75;5071720;28;19935;-80
2021/09/21 03:34:46;;;;;;;;;;;;;;;17.50;100.00;100298.63;5057548;28;19960;-80
2021/09/21 03:37:13;;;;;;;;;;;;;;;17.71;100.00;100300.91;5075205;28;19931;-80
2021/09/21 03:39:40;;;;;;;;;;;;;;;17.87;100.00;100287.56;5057489;28;19933;-80
2021/09/21 03:42:08;;;;;;;;;;;;;;;17.81;100.00;100291.41;5056880;28;19925;-80
2021/09/21 03:44:35;;;;;;;;;;;;;;;17.15;100.00;100286.13;5040552;28;19932;-80
2021/09/21 03:47:02;;;;;;;;;;;;;;;17.12;100.00;100297.50;5069053;28;19944;-80
2021/09/21 03:49:29;;;;;;;;;;;;;;;17.49;100.00;100295.00;5062048;28;19925;-80
2021/09/21 03:51:57;;;;;;;;;;;;;;;16.91;100.00;100292.31;5064328;28;19924;-80
2021/09/21 03:54:24;;;;;;;;;;;;;;;17.46;100.00;100301.53;5074749;28;20019;-80
2021/09/21 03:56:51;;;;;;;;;;;;;;;17.10;100.00;100312.03;5066650;28;19928;-80
2021/09/21 03:59:18;;;;;;;;;;;;;;;17.16;100.00;100306.69;5054642;28;19925;-80
2021/09/21 04:01:45;;;;;;;;;;;;;;;17.25;100.00;100316.13;5074789;28;19978;-80
2021/09/21 04:04:12;;;;;;;;;;;;;;;17.09;100.00;100310.47;5074794;28;19986;-80
2021/09/21 04:06:40;;;;;;;;;;;;;;;17.37;100.00;100309.78;5074703;28;19925;-80
2021/09/21 04:09:07;;;;;;;;;;;;;;;17.36;100.00;100313.06;5046118;28;19978;-80
2021/09/21 04:11:34;;;;;;;;;;;;;;;17.37;100.00;100309.03;5039915;28;19929;-79
2021/09/21 04:14:01;;;;;;;;;;;;;;;17.35;100.00;100303.00;5053379;28;19924;-80
2021/09/21 04:16:30;;;;;;;;;;;;;;;17.24;100.00;100293.97;5053359;28;19932;-80
2021/09/21 04:18:57;;;;;;;;;;;;;;;17.47;100.00;100289.00;5032794;28;19932;-80
2021/09/21 04:21:25;;;;;;;;;;;;;;;17.65;100.00;100286.53;5050078;28;19952;-80
2021/09/21 04:23:52;;;;;;;;;;;;;;;17.61;100.00;100291.50;5074393;28;19974;-80
2021/09/21 04:26:20;;;;;;;;;;;;;;;17.84;100.00;100299.00;5044473;28;19924;-79
2021/09/21 04:28:47;;;;;;;;;;;;;;;17.82;100.00;100302.25;5054468;28;19929;-80
2021/09/21 04:31:17;;;;;;;;;;;;;;;17.65;100.00;100297.84;5046150;28;19928;-80
2021/09/21 04:33:44;;;;;;;;;;;;;;;17.82;100.00;100293.78;5050473;28;19987;-79
2021/09/21 04:36:12;;;;;;;;;;;;;;;17.70;100.00;100300.16;5063694;28;19967;-80
2021/09/21 04:38:39;;;;;;;;;;;;;;;17.35;100.00;100303.00;5072665;28;20394;-79
2021/09/21 04:41:06;;;;;;;;;;;;;;;17.41;100.00;100312.53;5061484;28;19971;-79
2021/09/21 04:43:35;;;;;;;;;;;;;;;17.38;100.00;100311.41;5056207;28;19924;-80
2021/09/21 04:46:03;;;;;;;;;;;;;;;17.49;100.00;100308.34;5056250;28;19930;-79
2021/09/21 04:48:30;;;;;;;;;;;;;;;17.72;100.00;100316.66;5056206;28;20376;-80
2021/09/21 04:50:57;;;;;;;;;;;;;;;17.65;100.00;100314.81;5058615;28;19968;-80
2021/09/21 04:53:25;;;;;;;;;;;;;;;17.46;100.00;100314.88;5055883;28;19966;-80
2021/09/21 04:55:52;;;;;;;;;;;;;;;17.46;100.00;100312.84;5039299;28;19928;-80
2021/09/21 04:58:20;;;;;;;;;;;;;;;17.64;100.00;100310.41;5036026;28;19935;-80
2021/09/21 05:00:49;;;;;;;;;;;;;;;17.41;100.00;100316.19;5068445;28;19925;-80
2021/09/21 05:03:16;;;;;;;;;;;;;;;17.12;100.00;100320.09;5073554;28;19968;-80
2021/09/21 05:05:43;;;;;;;;;;;;;;;17.04;100.00;100327.13;5055215;28;19970;-80
2021/09/21 05:08:10;;;;;;;;;;;;;;;17.22;100.00;100319.06;5055656;28;19978;-80
2021/09/21 05:10:37;;;;;;;;;;;;;;;16.78;100.00;100322.47;5044027;28;19925;-80
2021/09/21 05:13:04;;;;;;;;;;;;;;;17.10;100.00;100328.22;5071186;28;19925;-80
2021/09/21 05:15:31;;;;;;;;;;;;;;;17.05;100.00;100323.06;5055494;28;20011;-80
2021/09/21 05:17:58;;;;;;;;;;;;;;;17.17;100.00;100322.41;5055304;28;19928;-80
2021/09/21 05:20:25;;;;;;;;;;;;;;;16.88;100.00;100324.25;5055251;28;20023;-80
2021/09/21 05:22:54;;;;;;;;;;;;;;;16.94;100.00;100322.50;5035591;28;20019;-80
2021/09/21 05:25:21;;;;;;;;;;;;;;;16.75;100.00;100328.97;5051903;28;19924;-80
2021/09/21 05:27:49;;;;;;;;;;;;;;;16.96;100.00;100322.88;5052236;28;20376;-80
2021/09/21 05:30:16;;;;;;;;;;;;;;;17.15;100.00;100324.84;5024595;28;20458;-80
2021/09/21 05:32:43;;;;;;;;;;;;;;;16.39;100.00;100311.16;5055581;28;19925;-80
2021/09/21 05:35:10;;;;;;;;;;;;;;;16.71;100.00;100331.06;5055323;28;20299;-80
2021/09/21 05:37:37;;;;;;;;;;;;;;;16.46;100.00;100322.31;5062984;28;19925;-80
2021/09/21 05:40:06;;;;;;;;;;;;;;;16.50;100.00;100317.38;5052691;28;19924;-80
2021/09/21 05:42:33;;;;;;;;;;;;;;;16.27;100.00;100315.38;5035354;28;19925;-80
2021/09/21 05:45:00;;;;;;;;;;;;;;;16.65;100.00;100319.50;5049906;28;20023;-80
2021/09/21 05:47:27;;;;;;;;;;;;;;;16.40;100.00;100310.72;5072889;28;19925;-80
2021/09/21 05:49:54;;;;;;;;;;;;;;;16.21;100.00;100315.09;5063405;28;20398;-80
2021/09/21 05:52:22;;;;;;;;;;;;;;;16.18;100.00;100326.44;5049030;28;19936;-80
2021/09/21 05:54:49;;;;;;;;;;;;;;;16.57;100.00;100322.91;5038265;28;20391;-80
2021/09/21 05:57:16;;;;;;;;;;;;;;;16.12;100.00;100326.16;5072818;28;19924;-80
2021/09/21 05:59:43;;;;;;;;;;;;;;;16.54;100.00;100323.78;5038532;28;19932;-80
2021/09/21 06:02:10;;;;;;;;;;;;;;;15.83;100.00;100333.53;5060424;28;19971;-79
2021/09/21 06:04:37;;;;;;;;;;;;;;;15.96;100.00;100345.75;5053131;28;19936;-79
2021/09/21 06:07:04;;;;;;;;;;;;;;;16.10;100.00;100339.88;5054632;28;20411;-80
2021/09/21 06:09:32;;;;;;;;;;;;;;;15.62;100.00;100330.25;5051759;28;19973;-80
2021/09/21 06:11:59;;;;;;;;;;;;;;;15.88;100.00;100337.88;5054804;28;19928;-79
2021/09/21 06:14:26;;;;;;;;;;;;;;;16.19;100.00;100331.66;5035823;28;19928;-80
2021/09/21 06:16:53;;;;;;;;;;;;;;;16.21;100.00;100343.31;5072445;28;19978;-80
2021/09/21 06:19:20;;;;;;;;;;;;;;;16.28;100.00;100340.34;5034440;28;20335;-80
2021/09/21 06:21:47;;;;;;;;;;;;;;;15.76;100.00;100346.94;5051140;28;20007;-80
2021/09/21 06:24:14;;;;;;;;;;;;;;;16.32;100.00;100348.75;5026152;28;19935;-80
2021/09/21 06:26:41;;;;;;;;;;;;;;;16.55;100.00;100347.94;5052535;28;19929;-80
2021/09/21 06:29:08;;;;;;;;;;;;;;;16.74;100.00;100345.09;5051143;28;19972;-80
2021/09/21 06:31:36;;;;;;;;;;;;;;;16.99;100.00;100347.41;5068782;28;19932;-80
2021/09/21 06:34:03;;;;;;;;;;;;;;;17.18;100.00;100346.56;5054646;28;19975;-80
2021/09/21 06:36:30;;;;;;;;;;;;;;;16.82;100.00;100348.56;5050895;28;20441;-79
2021/09/21 06:38:56;;;;;;;;;;;;;;;16.95;100.00;100346.72;5059331;28;20002;-80
2021/09/21 06:41:23;;;;;;;;;;;;;;;17.07;100.00;100349.63;5054574;28;19931;-80
2021/09/21 06:43:51;;;;;;;;;;;;;;;17.16;100.00;100343.41;5018821;28;20023;-79
2021/09/21 06:46:18;;;;;;;;;;;;;;;17.42;100.00;100350.84;5026058;28;19978;-80
2021/09/21 06:48:45;;;;;;;;;;;;;;;17.56;100.00;100356.22;5069578;28;19925;-80
2021/09/21 06:51:12;;;;;;;;;;;;;;;17.51;100.00;100354.69;5034124;28;19933;-80
2021/09/21 06:53:39;;;;;;;;;;;;;;;17.47;100.00;100347.53;5046243;28;19960;-80
2021/09/21 06:56:07;;;;;;;;;;;;;;;17.62;100.00;100351.63;5049990;28;20300;-80
2021/09/21 06:58:35;;;;;;;;;;;;;;;17.30;100.00;100360.81;5062562;28;19935;-80
2021/09/21 07:01:02;;;;;;;;;;;;;;;17.68;100.00;100359.16;5054142;28;19944;-80
2021/09/21 07:03:29;;;;;;;;;;;;;;;17.34;100.00;100367.16;5054223;28;19924;-80
2021/09/21 07:05:58;;;;;;;;;;;;;;;17.31;100.00;100372.94;5054068;28;19924;-80
2021/09/21 07:08:25;;;;;;;;;;;;;;;17.33;100.00;100376.09;5064537;28;20380;-79
2021/09/21 07:10:52;;;;;;;;;;;;;;;17.46;100.00;100379.88;5048190;28;19935;-80
2021/09/21 07:13:19;;;;;;;;;;;;;;;17.27;100.00;100389.94;5037454;28;19931;-80
2021/09/21 07:15:46;;;;;;;;;;;;;;;16.77;100.00;100395.03;5054163;28;20305;-80
2021/09/21 07:18:13;;;;;;;;;;;;;;;16.84;100.00;100392.06;5049733;28;19925;-80
2021/09/21 07:20:41;;;;;;;;;;;;;;;16.83;100.00;100386.84;5044340;28;19925;-79
2021/09/21 07:23:08;;;;;;;;;;;;;;;16.99;100.00;100399.03;5071652;28;19924;-79
2021/09/21 07:25:35;;;;;;;;;;;;;;;17.43;100.00;100398.47;5071870;28;19931;-80
2021/09/21 07:28:03;;;;;;;;;;;;;;;17.44;100.00;100405.75;5054426;28;19943;-79
2021/09/21 07:30:30;;;;;;;;;;;;;;;17.47;100.00;100404.06;5045323;28;19932;-80
2021/09/21 07:32:57;;;;;;;;;;;;;;;17.35;100.00;100399.88;5054449;28;19925;-79
2021/09/21 07:35:24;;;;;;;;;;;;;;;17.52;100.00;100395.84;5027253;28;19925;-80
2021/09/21 07:37:51;;;;;;;;;;;;;;;17.85;100.00;100405.97;5029055;28;19925;-80
2021/09/21 07:40:21;;;;;;;;;;;;;;;18.12;100.00;100399.25;5039774;28;19924;-80
2021/09/21 07:42:48;;;;;;;;;;;;;;;18.10;100.00;100408.16;5075143;28;19956;-79
2021/09/21 07:45:16;;;;;;;;;;;;;;;18.76;100.00;100402.00;5061005;28;19933;-80
2021/09/21 07:49:54;;;;;;;;;;;;;;;19.42;100.00;100402.88;5089812;28;19912;-80
2021/09/21 07:52:21;;;;;;;;;;;;;;;19.14;100.00;100391.59;5105502;28;19929;-80
2021/09/21 07:54:48;;;;;;;;;;;;;;;19.15;100.00;100390.34;5090154;28;19978;-80
2021/09/21 07:57:15;;;;;;;;;;;;;;;18.92;100.00;100397.06;5072094;28;19928;-80
2021/09/21 07:59:44;;;;;;;;;;;;;;;18.68;100.00;100401.41;5071874;28;19931;-80
2021/09/21 08:02:12;;;;;;;;;;;;;;;18.98;100.00;100400.13;5105486;28;19929;-80
2021/09/21 08:04:42;;;;;;;;;;;;;;;18.98;100.00;100395.28;5070109;28;20411;-80
2021/09/21 08:07:09;;;;;;;;;;;;;;;19.24;100.00;100402.59;5094057;28;19931;-80
2021/09/21 08:09:37;;;;;;;;;;;;;;;19.38;100.00;100396.53;5102638;28;20500;-80
2021/09/21 08:12:04;;;;;;;;;;;;;;;19.28;100.00;100397.66;5080492;28;19968;-80
2021/09/21 08:14:37;;;;;;;;;;;;;;;19.45;100.00;100390.66;5067292;28;20379;-80
2021/09/21 08:17:05;;;;;;;;;;;;;;;20.09;100.00;100388.56;5079686;28;19929;-80
2021/09/21 08:19:33;;;;;;;;;;;;;;;19.99;100.00;100384.06;5083065;28;19974;-80
2021/09/21 08:22:00;;;;;;;;;;;;;;;19.93;100.00;100391.56;5081981;28;19925;-80
2021/09/21 08:24:28;;;;;;;;;;;;;;;20.41;100.00;100388.31;5115468;28;19978;-80
2021/09/21 08:26:55;;;;;;;;;;;;;;;20.18;100.00;100380.97;5075078;28;19930;-80
2021/09/21 08:29:22;;;;;;;;;;;;;;;19.72;100.00;100393.03;5089372;28;19928;-80
2021/09/21 08:31:49;;;;;;;;;;;;;;;19.99;100.00;100386.88;5067048;28;19924;-80
2021/09/21 08:34:17;;;;;;;;;;;;;;;20.42;100.00;100396.34;5078289;28;20256;-80
2021/09/21 08:36:44;;;;;;;;;;;;;;;20.12;100.00;100402.66;5104754;28;19925;-80
2021/09/21 08:39:11;;;;;;;;;;;;;;;20.03;100.00;100401.75;5105147;28;20397;-80
2021/09/21 08:41:40;;;;;;;;;;;;;;;19.97;100.00;100392.22;5088963;28;19928;-80
2021/09/21 08:44:08;;;;;;;;;;;;;;;20.86;100.00;100398.00;5087999;28;19924;-80
2021/09/21 08:46:35;;;;;;;;;;;;;;;21.30;100.00;100393.94;5089097;28;19931;-80
2021/09/21 08:49:03;;;;;;;;;;;;;;;21.60;100.00;100400.09;5084846;28;20455;-80
2021/09/21 08:51:30;;;;;;;;;;;;;;;21.31;100.00;100395.50;5075902;28;19924;-80
2021/09/21 08:53:57;;;;;;;;;;;;;;;21.37;100.00;100390.78;5074577;28;19971;-80
2021/09/21 08:56:24;;;;;;;;;;;;;;;20.76;100.00;100385.00;5082238;28;19925;-80
2021/09/21 08:59:03;;;;;;;;;;;;;;;20.36;100.00;100392.50;5080213;28;20039;-80
2021/09/21 09:01:47;;;;;;;;;;;;;;;20.81;100.00;100395.75;5033809;28;19932;-80
2021/09/21 09:04:16;;;;;;;;;;;;;;;20.23;100.00;100399.47;5068993;28;19928;-82
2021/09/21 09:06:48;;;;;;;;;;;;;;;19.25;100.00;100392.06;5061787;28;19963;-79
2021/09/21 09:09:17;;;;;;;;;;;;;;;19.13;100.00;100396.44;5042979;28;19928;-80
2021/09/21 09:11:48;;;;;;;;;;;;;;;19.72;100.00;100395.84;5057248;28;19924;-79
2021/09/21 09:14:35;;;;;;;;;;;;;;;19.00;100.00;100392.81;5060357;28;20379;-79
2021/09/21 09:17:04;;;;;;;;;;;;;;;18.85;100.00;100402.16;5074823;28;20314;-79
2021/09/21 09:19:35;;;;;;;;;;;;;;;19.47;100.00;100404.38;5090208;28;20380;-79
2021/09/21 09:22:03;;;;;;;;;;;;;;;19.34;100.00;100403.56;5066144;28;19964;-79
2021/09/21 09:24:30;;;;;;;;;;;;;;;19.08;100.00;100405.53;5053806;28;19991;-79
2021/09/21 09:27:16;;;;;;;;;;;;;;;19.50;100.00;100409.94;5052733;28;20037;-79
2021/09/21 09:30:04;;;;;;;;;;;;;;;19.47;100.00;100410.84;5073611;28;19947;-79
2021/09/21 09:32:49;;;;;;;;;;;;;;;19.55;100.00;100415.03;5073973;28;20002;-79
2021/09/21 09:35:24;;;;;;;;;;;;;;;19.81;100.00;100410.19;5074340;28;20268;-79
2021/09/21 09:37:52;;;;;;;;;;;;;;;20.02;100.00;100400.16;5095247;28;19932;-79
2021/09/21 09:40:21;;;;;;;;;;;;;;;19.94;100.00;100419.47;5088376;28;20375;-79
2021/09/21 09:42:49;;;;;;;;;;;;;;;20.06;100.00;100410.16;5074642;28;19933;-79
2021/09/21 09:45:26;;;;;;;;;;;;;;;19.85;100.00;100418.56;5071780;28;19939;-79
2021/09/21 09:47:54;;;;;;;;;;;;;;;20.51;100.00;100409.84;5069732;28;20606;-79
2021/09/21 09:50:24;;;;;;;;;;;;;;;20.41;100.00;100408.97;5057076;28;20320;-80
2021/09/21 09:53:00;;;;;;;;;;;;;;;20.63;100.00;100426.06;5089371;28;19924;-80
2021/09/21 09:55:28;;;;;;;;;;;;;;;20.64;100.00;100413.44;5074223;28;20364;-79
2021/09/21 09:57:56;;;;;;;;;;;;;;;20.39;100.00;100416.34;5072972;28;19928;-79
2021/09/21 10:00:23;;;;;;;;;;;;;;;20.22;100.00;100424.22;5074117;28;19928;-79
2021/09/21 10:02:51;;;;;;;;;;;;;;;19.16;100.00;100412.56;5106436;28;19931;-80
2021/09/21 10:05:19;;;;;;;;;;;;;;;19.81;100.00;100424.34;5072832;28;19931;-79
2021/09/21 10:07:46;;;;;;;;;;;;;;;20.10;100.00;100421.38;5074226;28;19929;-79
2021/09/21 10:10:14;;;;;;;;;;;;;;;20.44;100.00;100415.78;5056118;28;20383;-79
2021/09/21 10:12:42;;;;;;;;;;;;;;;20.15;100.00;100412.31;5071679;28;19924;-80
2021/09/21 10:15:10;;;;;;;;;;;;;;;20.18;100.00;100417.06;5055913;28;19924;-79
2021/09/21 10:17:47;;;;;;;;;;;;;;;20.24;100.00;100410.38;5106363;28;19947;-79
2021/09/21 10:20:14;;;;;;;;;;;;;;;20.38;100.00;100404.22;5072634;28;20402;-79
2021/09/21 10:22:49;;;;;;;;;;;;;;;20.49;100.00;100413.13;5059350;28;20410;-79
2021/09/21 10:25:17;;;;;;;;;;;;;;;20.71;100.00;100401.81;5073713;28;20447;-79
2021/09/21 10:27:51;;;;;;;;;;;;;;;20.27;100.00;100402.97;5072498;28;20012;-79
2021/09/21 10:30:21;;;;;;;;;;;;;;;20.86;100.00;100403.69;5057903;28;19968;-79
2021/09/21 10:32:49;;;;;;;;;;;;;;;20.38;100.00;100406.25;5072544;28;19946;-79
2021/09/21 10:35:30;;;;;;;;;;;;;;;20.89;100.00;100410.50;5057235;28;20336;-79
2021/09/21 10:38:02;;;;;;;;;;;;;;;20.80;100.00;100421.78;5073519;28;19932;-79
2021/09/21 10:40:33;;;;;;;;;;;;;;;20.64;100.00;100424.81;5073455;28;19932;-79
2021/09/21 10:43:00;;;;;;;;;;;;;;;20.48;100.00;100416.44;5059826;28;19925;-79
2021/09/21 10:45:28;;;;;;;;;;;;;;;20.27;100.00;100417.16;5071535;28;19931;-79
2021/09/21 10:48:02;;;;;;;;;;;;;;;20.20;100.00;100425.94;5073056;28;19968;-80
2021/09/21 10:50:29;;;;;;;;;;;;;;;20.25;100.00;100425.38;5073015;28;19935;-79
2021/09/21 10:53:05;;;;;;;;;;;;;;;20.54;100.00;100437.34;5072050;28;19947;-79
2021/09/21 10:55:34;;;;;;;;;;;;;;;20.27;100.00;100423.66;5055311;28;19929;-79
2021/09/21 10:58:03;;;;;;;;;;;;;;;20.73;100.00;100436.25;5043707;28;19960;-79
2021/09/21 11:00:34;;;;;;;;;;;;;;;20.56;100.00;100429.13;5072815;28;19924;-80
2021/09/21 11:03:02;;;;;;;;;;;;;;;20.27;100.00;100422.84;5071748;28;19924;-79
2021/09/21 11:05:32;;;;;;;;;;;;;;;20.39;100.00;100425.66;5073026;28;19929;-79
2021/09/21 11:08:03;;;;;;;;;;;;;;;20.62;100.00;100435.81;5057639;28;19947;-80
2021/09/21 11:10:32;;;;;;;;;;;;;;;20.49;100.00;100427.34;5054967;28;19924;-79
2021/09/21 11:12:59;;;;;;;;;;;;;;;20.63;100.00;100440.28;5071302;28;19925;-79
2021/09/21 11:15:27;;;;;;;;;;;;;;;20.78;100.00;100441.34;5072666;28;20371;-79
2021/09/21 11:18:05;;;;;;;;;;;;;;;20.43;100.00;100434.84;5069823;28;20331;-79
2021/09/21 11:20:33;;;;;;;;;;;;;;;20.69;100.00;100438.44;5062207;28;19928;-79
2021/09/21 11:23:03;;;;;;;;;;;;;;;20.53;100.00;100435.72;5071068;28;19924;-79
2021/09/21 11:25:30;;;;;;;;;;;;;;;20.49;100.00;100429.41;5072674;28;19963;-79
2021/09/21 11:27:58;;;;;;;;;;;;;;;20.50;100.00;100425.28;5072247;28;20016;-79
2021/09/21 11:30:25;;;;;;;;;;;;;;;20.53;100.00;100421.53;5071512;28;19924;-79
2021/09/21 11:32:52;;;;;;;;;;;;;;;20.74;100.00;100420.78;5072586;28;19971;-79
2021/09/21 11:35:20;;;;;;;;;;;;;;;20.53;100.00;100427.22;5071385;28;20280;-79
2021/09/21 11:37:49;;;;;;;;;;;;;;;20.04;100.00;100440.22;5071438;28;19956;-79
2021/09/21 11:40:27;;;;;;;;;;;;;;;20.06;100.00;100441.34;5058714;28;19928;-79
2021/09/21 11:42:55;;;;;;;;;;;;;;;20.22;100.00;100437.63;5060890;28;19925;-79
2021/09/21 11:45:22;;;;;;;;;;;;;;;20.15;100.00;100449.19;5102629;28;19924;-79
2021/09/21 11:47:50;;;;;;;;;;;;;;;20.49;100.00;100446.44;5072251;28;19928;-80
2021/09/21 11:50:23;;;;;;;;;;;;;;;20.41;100.00;100445.06;5070941;28;19931;-79
2021/09/21 11:52:51;;;;;;;;;;;;;;;20.72;100.00;100441.13;5057009;28;19929;-78
2021/09/21 11:55:20;;;;;;;;;;;;;;;21.04;100.00;100434.31;5088045;28;19978;-78
2021/09/21 11:57:48;;;;;;;;;;;;;;;20.82;100.00;100431.44;5071001;28;19982;-78
2021/09/21 12:00:19;;;;;;;;;;;;;;;21.58;100.00;100431.03;5071232;28;19974;-78
2021/09/21 12:02:50;;;;;;;;;;;;;;;21.42;100.00;100430.00;5104602;28;19929;-78
2021/09/21 12:05:18;;;;;;;;;;;;;;;21.30;100.00;100427.25;5062335;28;19925;-78
2021/09/21 12:07:45;;;;;;;;;;;;;;;21.00;100.00;100425.94;5066983;28;19978;-78
2021/09/21 12:11:10;;;;;;;;;;;;;;;21.07;100.00;100422.81;5117193;27;20408;-79
2021/09/21 12:13:38;;;;;;;;;;;;;;;20.95;100.00;100434.25;5129600;28;19923;-79
2021/09/21 12:16:08;;;;;;;;;;;;;;;21.38;100.00;100431.41;5094751;28;19931;-79
2021/09/21 12:18:37;;;;;;;;;;;;;;;20.50;100.00;100425.28;5116579;28;20374;-79
2021/09/21 12:21:07;;;;;;;;;;;;;;;20.88;100.00;100431.63;5112644;28;19923;-79
2021/09/21 12:23:53;;;;;;;;;;;;;;;21.05;100.00;100425.31;5121777;28;19931;-79
2021/09/21 12:26:39;;;;;;;;;;;;;;;21.01;100.00;100421.84;5083724;28;19931;-79
2021/09/21 12:29:08;;;;;;;;;;;;;;;21.20;100.00;100426.38;5120578;27;20375;-79
2021/09/21 12:31:37;;;;;;;;;;;;;;;21.16;100.00;100413.56;5108724;28;20291;-79
2021/09/21 12:34:11;;;;;;;;;;;;;;;21.13;100.00;100417.31;5129171;28;19932;-79
2021/09/21 12:36:48;;;;;;;;;;;;;;;21.31;100.00;100417.47;5129001;27;19928;-79
2021/09/21 12:39:17;;;;;;;;;;;;;;;21.55;100.00;100420.59;5119595;28;19924;-79
2021/09/21 12:41:46;;;;;;;;;;;;;;;21.36;100.00;100426.19;5128995;28;19928;-79
2021/09/21 12:44:14;;;;;;;;;;;;;;;21.12;100.00;100410.88;5095307;28;19927;-79
2021/09/21 12:46:43;;;;;;;;;;;;;;;20.89;100.00;100410.50;5114585;28;19952;-79
2021/09/21 12:49:12;;;;;;;;;;;;;;;21.25;100.00;100417.25;5104270;28;20352;-79
2021/09/21 12:51:41;;;;;;;;;;;;;;;21.22;100.00;100411.69;5119636;28;19932;-79